Terminal Aerodrome Forecast
Issued by NWS Sterling, VA

Current Version | Previous Version | Graphics & Text | Print | Product List | Glossary On
Versions: 1 2 3 4 5 6 7 8 9 10 11 12 13 14 15 16 17 18 19 20 21 22
000
FTUS41 KLWX 182039 AAA
TAFDCA
TAF AMD
KDCA 182039Z 1821/1924 16008KT P6SM SKC
     FM182300 14004KT P6SM SCT050
     FM190500 17005KT P6SM BKN050
     FM190800 23007KT P6SM BKN100
     FM191200 26015G25KT P6SM BKN100
     FM191600 29022G35KT P6SM BKN050=

USA.gov is the U.S. government's official web portal to all federal, state and local government web resources and services.